createdAt,value
2023-02-22T00:00:50.115Z,97964.41
2023-02-22T00:03:24.980Z,97966.34
2023-02-22T00:05:55.426Z,97962.31
2023-02-22T00:08:26.050Z,97961.72
2023-02-22T00:10:54.021Z,97970.13
2023-02-22T00:13:23.085Z,97960.47
2023-02-22T00:15:52.415Z,97959.44
2023-02-22T00:18:20.946Z,97960.47
2023-02-22T00:20:49.199Z,97963.38
2023-02-22T00:23:20.097Z,97950.22
2023-02-22T00:25:49.315Z,97952.91
2023-02-22T00:28:19.013Z,97950.00
2023-02-22T00:30:48.344Z,97953.72
2023-02-22T00:33:17.982Z,97942.00
2023-02-22T00:35:47.282Z,97953.50
2023-02-22T00:38:18.253Z,97943.03
2023-02-22T00:40:46.672Z,97943.03
2023-02-22T00:43:15.480Z,97943.69
2023-02-22T00:45:43.607Z,97949.72
2023-02-22T00:48:12.361Z,97952.38
2023-02-22T00:50:41.809Z,97954.09
2023-02-22T00:53:10.477Z,97949.19
2023-02-22T00:55:39.268Z,97937.72
2023-02-22T00:58:08.196Z,97940.25
2023-02-22T01:00:39.322Z,97942.91
2023-02-22T01:03:08.237Z,97937.75
2023-02-22T01:05:37.548Z,97937.75
2023-02-22T01:08:09.026Z,97934.72
2023-02-22T01:10:38.283Z,97925.66
2023-02-22T01:13:09.325Z,97927.97
2023-02-22T01:15:39.562Z,97929.00
2023-02-22T01:18:08.059Z,97923.50
2023-02-22T01:20:36.204Z,97920.47
2023-02-22T01:23:08.145Z,97921.72
2023-02-22T01:25:36.982Z,97921.50
2023-02-22T01:28:07.494Z,97918.00
2023-02-22T01:30:37.456Z,97908.38
2023-02-22T01:33:08.442Z,97897.69
2023-02-22T01:35:38.528Z,97904.94
2023-02-22T01:38:08.603Z,97901.47
2023-02-22T01:40:39.057Z,97901.03
2023-02-22T01:43:18.488Z,97898.94
2023-02-22T01:45:54.878Z,97897.16
2023-02-22T01:48:29.351Z,97885.88
2023-02-22T01:51:00.611Z,97886.78
2023-02-22T01:53:34.427Z,97883.13
2023-02-22T01:56:04.214Z,97885.97
2023-02-22T01:58:35.103Z,97892.84
2023-02-22T02:01:03.210Z,97891.16
2023-02-22T02:03:34.769Z,97889.47
2023-02-22T02:06:05.570Z,97885.09
2023-02-22T02:08:42.544Z,97874.53
2023-02-22T02:11:11.082Z,97872.25
2023-02-22T02:13:39.678Z,97878.81
2023-02-22T02:16:08.105Z,97860.25
2023-02-22T02:18:36.413Z,97856.66
2023-02-22T02:21:37.876Z,97860.06
2023-02-22T02:24:53.362Z,97860.34
2023-02-22T02:27:24.144Z,97853.88
2023-02-22T02:30:29.272Z,97847.38
2023-02-22T02:33:02.124Z,97842.16
2023-02-22T02:35:39.355Z,97844.97
2023-02-22T02:38:18.182Z,97845.56
2023-02-22T02:40:50.562Z,97844.44
2023-02-22T02:43:26.596Z,97837.59
2023-02-22T02:46:00.723Z,97836.19
2023-02-22T02:48:34.784Z,97839.66
2023-02-22T02:51:06.952Z,97826.31
2023-02-22T02:53:38.143Z,97833.50
2023-02-22T02:56:07.681Z,97826.44
2023-02-22T02:58:35.665Z,97822.72
2023-02-22T03:01:05.571Z,97827.59
2023-02-22T03:03:52.576Z,97812.97
2023-02-22T03:06:52.057Z,97810.72
2023-02-22T03:09:36.215Z,97807.00
2023-02-22T03:12:13.925Z,97802.47
2023-02-22T03:14:50.734Z,97801.78
2023-02-22T03:17:25.065Z,97803.41
2023-02-22T03:20:00.116Z,97802.59
2023-02-22T03:22:32.724Z,97797.13
2023-02-22T03:25:07.165Z,97799.22
2023-02-22T03:27:43.514Z,97796.19
2023-02-22T03:30:17.034Z,97787.03
2023-02-22T03:32:49.855Z,97797.94
2023-02-22T03:35:23.400Z,97789.94
2023-02-22T03:37:56.114Z,97788.31
2023-02-22T03:40:28.343Z,97788.19
2023-02-22T03:43:03.098Z,97787.59
2023-02-22T03:45:33.299Z,97785.97
2023-02-22T03:48:06.405Z,97786.78
2023-02-22T03:50:38.399Z,97783.53
2023-02-22T03:53:07.514Z,97787.50
2023-02-22T03:55:35.916Z,97782.13
2023-02-22T03:58:08.016Z,97784.00
2023-02-22T04:00:36.690Z,97787.50
2023-02-22T04:03:05.377Z,97789.56
2023-02-22T04:05:33.346Z,97791.09
2023-02-22T04:08:02.711Z,97788.28
2023-02-22T04:10:30.720Z,97794.09
2023-02-22T04:12:58.946Z,97793.16
2023-02-22T04:15:27.080Z,97792.56
2023-02-22T04:17:55.136Z,97791.38
2023-02-22T04:20:25.623Z,97789.16
2023-02-22T04:22:54.589Z,97785.91
2023-02-22T04:25:24.808Z,97782.06
2023-02-22T04:27:52.920Z,97773.81
2023-02-22T04:30:21.436Z,97774.63
2023-02-22T04:32:49.454Z,97778.94
2023-02-22T04:35:17.609Z,97776.72
2023-02-22T04:37:45.644Z,97774.28
2023-02-22T04:40:14.060Z,97775.19
2023-02-22T04:42:43.858Z,97780.75
2023-02-22T04:45:12.496Z,97776.91
2023-02-22T04:47:40.646Z,97772.25
2023-02-22T04:50:11.072Z,97773.53
2023-02-22T04:52:39.084Z,97773.16
2023-02-22T04:55:07.654Z,97771.53
2023-02-22T04:57:35.578Z,97770.94
2023-02-22T05:00:05.901Z,97770.94
2023-02-22T05:02:33.932Z,97760.47
2023-02-22T05:05:02.003Z,97763.16
2023-02-22T05:07:30.025Z,97760.72
2023-02-22T05:09:57.997Z,97758.25
2023-02-22T05:12:28.353Z,97756.63
2023-02-22T05:14:56.461Z,97757.69
2023-02-22T05:17:25.744Z,97757.94
2023-02-22T05:19:53.710Z,97750.38
2023-02-22T05:22:21.658Z,97751.19
2023-02-22T05:24:49.629Z,97749.34
2023-02-22T05:27:17.546Z,97748.53
2023-02-22T05:29:45.718Z,97750.97
2023-02-22T05:32:13.818Z,97746.66
2023-02-22T05:34:43.145Z,97751.19
2023-02-22T05:37:11.100Z,97743.41
2023-02-22T05:39:39.330Z,97742.78
2023-02-22T05:42:07.337Z,97741.97
2023-02-22T05:44:35.295Z,97742.19
2023-02-22T05:47:03.255Z,97742.66
2023-02-22T05:49:31.217Z,97748.44
2023-02-22T05:52:00.643Z,97740.66
2023-02-22T05:54:28.661Z,97744.38
2023-02-22T05:56:56.633Z,97735.78
2023-02-22T05:59:24.581Z,97733.09
2023-02-22T06:01:52.560Z,97735.53
2023-02-22T06:04:20.489Z,97731.47
2023-02-22T06:06:48.466Z,97734.13
2023-02-22T06:09:17.837Z,97731.47
2023-02-22T06:11:45.835Z,97733.56
2023-02-22T06:14:13.745Z,97733.09
2023-02-22T06:16:41.792Z,97733.31
2023-02-22T06:19:09.762Z,97736.66
2023-02-22T06:21:37.709Z,97741.41
2023-02-22T06:24:06.095Z,97745.13
2023-02-22T06:26:36.144Z,97745.13
2023-02-22T06:29:06.052Z,97751.44
2023-02-22T06:31:34.207Z,97746.41
2023-02-22T06:34:02.709Z,97744.13
2023-02-22T06:36:31.634Z,97743.91
2023-02-22T06:38:59.733Z,97746.56
2023-02-22T06:41:27.753Z,97753.09
2023-02-22T06:43:57.190Z,97751.00
2023-02-22T06:46:25.214Z,97755.31
2023-02-22T06:48:53.267Z,97757.97
2023-02-22T06:51:22.071Z,97764.06
2023-02-22T06:53:50.089Z,97755.75
2023-02-22T06:56:18.177Z,97753.69
2023-02-22T06:58:46.781Z,97759.63
2023-02-22T07:01:16.872Z,97774.38
2023-02-22T07:03:45.242Z,97764.50
2023-02-22T07:06:13.295Z,97772.66
2023-02-22T07:08:41.362Z,97763.63
2023-02-22T07:11:10.294Z,97773.03
2023-02-22T07:13:38.221Z,97781.63
2023-02-22T07:16:06.865Z,97776.06
2023-02-22T07:18:36.548Z,97771.78
2023-02-22T07:21:04.690Z,97781.41
2023-02-22T07:23:32.700Z,97782.81
2023-02-22T07:26:01.164Z,97789.41
2023-02-22T07:28:29.236Z,97777.25
2023-02-22T07:30:57.208Z,97792.38
2023-02-22T07:33:25.754Z,97785.53
2023-02-22T07:35:55.178Z,97792.53
2023-02-22T07:38:23.211Z,97779.91
2023-02-22T07:40:51.125Z,97779.81
2023-02-22T07:43:21.631Z,97782.78
2023-02-22T07:45:52.385Z,97786.88
2023-02-22T07:48:22.135Z,97781.81
2023-02-22T07:50:50.270Z,97791.34
2023-02-22T07:53:21.891Z,97789.06
2023-02-22T07:55:51.275Z,97782.72
2023-02-22T07:58:21.286Z,97787.25
2023-02-22T08:00:49.331Z,97784.78
2023-02-22T08:03:19.972Z,97785.28
2023-02-22T08:05:50.109Z,97780.28
2023-02-22T08:08:20.063Z,97777.13
2023-02-22T08:10:49.232Z,97777.59
2023-02-22T08:13:17.563Z,97771.13
2023-02-22T08:15:47.295Z,97776.53
2023-02-22T08:18:17.337Z,97774.97
2023-02-22T08:20:47.667Z,97770.41
2023-02-22T08:23:17.603Z,97774.56
2023-02-22T08:25:47.103Z,97779.31
2023-02-22T08:28:17.686Z,97778.41
2023-02-22T08:30:45.791Z,97783.38
2023-02-22T08:33:16.924Z,97783.50
2023-02-22T08:35:45.121Z,97782.78
2023-02-22T08:38:20.220Z,97782.38
2023-02-22T08:40:50.448Z,97783.03
2023-02-22T08:43:19.564Z,97777.75
2023-02-22T08:48:51.494Z,97784.84
2023-02-22T08:51:19.680Z,97785.41
2023-02-22T08:53:47.631Z,97780.59
2023-02-22T08:56:16.988Z,97779.16
2023-02-22T08:58:45.222Z,97786.47
2023-02-22T09:01:19.255Z,97784.34
2023-02-22T09:03:50.090Z,97784.44
2023-02-22T09:06:18.485Z,97779.75
2023-02-22T09:08:46.583Z,97781.59
2023-02-22T09:11:16.522Z,97785.81
2023-02-22T09:13:44.752Z,97785.56
2023-02-22T09:16:13.016Z,97771.28
2023-02-22T09:18:44.389Z,97773.47
2023-02-22T09:21:13.364Z,97768.81
2023-02-22T09:23:41.580Z,97775.94
2023-02-22T09:26:10.462Z,97773.63
2023-02-22T09:28:39.929Z,97775.88
2023-02-22T09:31:08.837Z,97771.66
2023-02-22T09:33:36.909Z,97774.16
2023-02-22T09:36:06.974Z,97781.03
2023-02-22T09:38:35.036Z,97775.00
2023-02-22T09:41:15.606Z,97769.72
2023-02-22T09:43:50.538Z,97759.94
2023-02-22T09:46:29.752Z,97773.63
2023-02-22T09:49:03.584Z,97767.44
2023-02-22T09:51:38.525Z,97766.47
2023-02-22T09:54:17.677Z,97762.81
2023-02-22T09:56:49.322Z,97765.75
2023-02-22T09:59:24.412Z,97771.47
2023-02-22T10:01:59.163Z,97758.88
2023-02-22T10:04:41.447Z,97764.28
2023-02-22T10:07:18.364Z,97761.59
2023-02-22T10:09:48.693Z,97761.13
2023-02-22T10:12:25.204Z,97762.84
2023-02-22T10:15:27.577Z,97753.47
2023-02-22T10:18:05.149Z,97762.09
2023-02-22T10:20:45.952Z,97759.22
2023-02-22T10:23:22.787Z,97753.09
2023-02-22T10:25:55.835Z,97750.22
2023-02-22T10:28:31.058Z,97756.25
2023-02-22T10:31:05.313Z,97750.88
2023-02-22T10:33:38.049Z,97756.03
2023-02-22T10:36:07.762Z,97751.44
2023-02-22T10:38:36.476Z,97742.31
2023-02-22T10:41:20.274Z,97744.75
2023-02-22T10:43:48.315Z,97735.03
2023-02-22T10:46:22.655Z,97738.81
2023-02-22T10:48:54.581Z,97731.53
2023-02-22T10:51:22.700Z,97741.50
2023-02-22T10:54:00.119Z,97740.97
2023-02-22T10:56:29.421Z,97726.94
2023-02-22T10:58:59.743Z,97731.78
2023-02-22T11:01:37.214Z,97728.78
2023-02-22T11:04:12.905Z,97721.19
2023-02-22T11:06:42.742Z,97723.88
2023-02-22T11:09:14.457Z,97718.72
2023-02-22T11:11:45.980Z,97716.03
2023-02-22T11:14:26.044Z,97719.56
2023-02-22T11:17:07.885Z,97718.19
2023-02-22T11:19:38.476Z,97710.59
2023-02-22T11:22:14.814Z,97711.34
2023-02-22T11:24:50.748Z,97699.44
2023-02-22T11:27:31.722Z,97693.94
2023-02-22T11:30:21.867Z,97694.81
2023-02-22T11:32:55.948Z,97687.25
2023-02-22T11:35:40.803Z,97687.31
2023-02-22T11:38:17.453Z,97683.25
2023-02-22T11:40:46.582Z,97681.94
2023-02-22T11:43:17.760Z,97687.38
2023-02-22T11:46:03.067Z,97683.06
2023-02-22T11:48:40.550Z,97690.91
2023-02-22T11:51:27.669Z,97687.13
2023-02-22T11:54:25.492Z,97688.50
2023-02-22T11:57:06.319Z,97671.44
2023-02-22T11:59:44.492Z,97679.84
2023-02-22T12:02:57.282Z,97668.19
2023-02-22T12:05:40.731Z,97667.56
2023-02-22T12:08:21.138Z,97662.41
2023-02-22T12:11:03.559Z,97655.69
2023-02-22T12:13:46.788Z,97660.00
2023-02-22T12:16:22.841Z,97655.72
2023-02-22T12:19:08.436Z,97664.13
2023-02-22T12:21:41.925Z,97653.56
2023-02-22T12:24:16.547Z,97652.81
2023-02-22T12:26:49.209Z,97642.81
2023-02-22T12:29:26.283Z,97647.16
2023-02-22T12:32:01.170Z,97649.31
2023-02-22T12:34:36.077Z,97643.06
2023-02-22T12:37:16.244Z,97646.59
2023-02-22T12:39:54.395Z,97643.06
2023-02-22T12:42:31.651Z,97644.16
2023-02-22T12:45:08.315Z,97639.03
2023-02-22T12:47:43.831Z,97640.94
2023-02-22T12:50:21.130Z,97642.53
2023-02-22T12:52:57.775Z,97637.13
2023-02-22T12:55:27.809Z,97638.75
2023-02-22T12:58:02.960Z,97635.25
2023-02-22T13:00:38.779Z,97631.47
2023-02-22T13:03:30.300Z,97631.47
2023-02-22T13:06:24.824Z,97623.88
2023-02-22T13:09:05.562Z,97626.81
2023-02-22T13:11:43.320Z,97626.25
2023-02-22T13:14:31.798Z,97625.72
2023-02-22T13:17:06.778Z,97627.06
2023-02-22T13:19:45.005Z,97618.09
2023-02-22T13:22:21.206Z,97621.63
2023-02-22T13:25:02.813Z,97617.78
2023-02-22T13:27:39.155Z,97606.13
2023-02-22T13:30:16.559Z,97609.78
2023-02-22T13:33:05.556Z,97609.78
2023-02-22T13:35:48.922Z,97607.56
2023-02-22T13:39:01.578Z,97608.25
2023-02-22T13:41:59.545Z,97608.94
2023-02-22T13:44:59.863Z,97604.06
2023-02-22T13:47:57.806Z,97602.25
2023-02-22T13:50:40.770Z,97606.06
2023-02-22T13:53:15.015Z,97607.22
2023-02-22T13:55:51.775Z,97599.06
2023-02-22T13:58:22.270Z,97608.25
2023-02-22T14:00:53.484Z,97612.53
2023-02-22T14:03:41.904Z,97615.59
2023-02-22T14:06:12.286Z,97615.22
2023-02-22T14:08:42.142Z,97611.03
2023-02-22T14:11:45.561Z,97612.06
2023-02-22T14:14:19.209Z,97616.13
2023-02-22T14:17:28.088Z,97609.03
2023-02-22T14:20:31.126Z,97599.66
2023-02-22T14:23:27.624Z,97602.41
2023-02-22T14:25:56.199Z,97594.34
2023-02-22T14:28:42.399Z,97604.09
2023-02-22T14:31:29.493Z,97603.16
2023-02-22T14:34:11.305Z,97602.16
2023-02-22T14:36:55.118Z,97603.81
2023-02-22T14:39:32.199Z,97596.81
2023-02-22T14:42:06.499Z,97596.56
2023-02-22T14:44:38.146Z,97594.72
2023-02-22T14:47:15.213Z,97591.13
2023-02-22T14:49:48.176Z,97589.78
2023-02-22T14:52:24.338Z,97597.94
2023-02-22T14:55:17.605Z,97595.66
2023-02-22T14:57:59.726Z,97598.63
2023-02-22T15:00:32.502Z,97599.97
2023-02-22T15:03:02.289Z,97591.03
2023-02-22T15:05:38.529Z,97594.06
2023-02-22T15:08:09.690Z,97594.16
2023-02-22T15:10:43.966Z,97590.63
2023-02-22T15:13:18.881Z,97591.47
2023-02-22T15:15:49.432Z,97590.66
2023-02-22T15:18:29.555Z,97590.19
2023-02-22T15:20:59.650Z,97594.75
2023-02-22T15:23:33.417Z,97590.22
2023-02-22T15:26:01.739Z,97592.44
2023-02-22T15:28:32.232Z,97599.25
2023-02-22T15:31:17.559Z,97601.50
2023-02-22T15:33:47.354Z,97605.28
2023-02-22T15:36:17.949Z,97593.19
2023-02-22T15:38:51.290Z,97595.34
2023-02-22T15:41:28.063Z,97597.63
2023-02-22T15:44:17.697Z,97600.06
2023-02-22T15:46:50.811Z,97595.25
2023-02-22T15:49:24.394Z,97608.50
2023-02-22T15:52:05.444Z,97601.50
2023-02-22T15:54:42.229Z,97607.72
2023-02-22T15:57:10.706Z,97604.53
2023-02-22T15:59:44.997Z,97600.19
2023-02-22T16:02:32.615Z,97612.66
2023-02-22T16:05:06.914Z,97604.56
2023-02-22T16:07:39.904Z,97605.38
2023-02-22T16:10:10.437Z,97611.88
2023-02-22T16:12:38.497Z,97611.09
2023-02-22T16:15:18.115Z,97604.63
2023-02-22T16:18:00.907Z,97604.91
2023-02-22T16:20:34.468Z,97606.81
2023-02-22T16:23:23.451Z,97606.28
2023-02-22T16:26:04.181Z,97606.81
2023-02-22T16:28:35.599Z,97601.44
2023-02-22T16:31:04.366Z,97609.25
2023-02-22T16:33:33.985Z,97606.81
2023-02-22T16:36:09.221Z,97609.78
2023-02-22T16:38:39.345Z,97613.84
2023-02-22T16:41:08.439Z,97613.03
2023-02-22T16:43:38.398Z,97611.13
2023-02-22T16:46:07.524Z,97611.16
2023-02-22T16:48:38.393Z,97617.63
2023-02-22T16:51:21.389Z,97620.81
2023-02-22T16:53:50.972Z,97625.41
2023-02-22T16:56:22.225Z,97627.28
2023-02-22T16:58:53.518Z,97620.25
2023-02-22T17:01:23.447Z,97625.34
2023-02-22T17:03:54.339Z,97623.72
2023-02-22T17:06:25.287Z,97622.38
2023-02-22T17:08:53.654Z,97621.28
2023-02-22T17:11:22.318Z,97624.53
2023-02-22T17:13:53.738Z,97611.31
2023-02-22T17:16:22.302Z,97621.56
2023-02-22T17:18:51.480Z,97625.06
2023-02-22T17:21:19.506Z,97620.44
2023-02-22T17:23:49.030Z,97621.53
2023-02-22T17:26:21.158Z,97616.13
2023-02-22T17:28:50.166Z,97618.50
2023-02-22T17:31:23.819Z,97626.06
2023-02-22T17:33:53.124Z,97640.31
2023-02-22T17:36:25.218Z,97646.50
2023-02-22T17:38:55.735Z,97641.59
2023-02-22T17:41:27.709Z,97644.53
2023-02-22T17:43:58.415Z,97644.75
2023-02-22T17:46:30.771Z,97652.56
2023-02-22T17:49:11.273Z,97663.84
2023-02-22T17:51:42.630Z,97664.63
2023-02-22T17:54:12.208Z,97665.13
2023-02-22T17:56:41.442Z,97668.91
2023-02-22T17:59:12.363Z,97666.72
2023-02-22T18:01:40.470Z,97651.38
2023-02-22T18:04:08.478Z,97657.53
2023-02-22T18:06:38.260Z,97667.50
2023-02-22T18:09:10.612Z,97673.41
2023-02-22T18:11:42.484Z,97661.81
2023-02-22T18:14:12.388Z,97666.38
2023-02-22T18:16:41.581Z,97674.72
2023-02-22T18:19:09.552Z,97674.16
2023-02-22T18:21:38.717Z,97675.25
2023-02-22T18:24:07.659Z,97677.38
2023-02-22T18:26:35.757Z,97672.25
2023-02-22T18:29:05.257Z,97675.47
2023-02-22T18:31:33.280Z,97676.53
2023-02-22T18:34:01.324Z,97677.84
2023-02-22T18:36:29.438Z,97671.13
2023-02-22T18:38:58.053Z,97679.22
2023-02-22T18:41:26.484Z,97672.75
2023-02-22T18:43:57.712Z,97671.41
2023-02-22T18:46:27.857Z,97667.91
2023-02-22T18:48:56.746Z,97666.00
2023-02-22T18:51:26.092Z,97671.41
2023-02-22T18:54:00.045Z,97668.97
2023-02-22T18:56:30.885Z,97668.41
2023-02-22T18:59:00.864Z,97671.34
2023-02-22T19:01:33.779Z,97667.56
2023-02-22T19:04:01.795Z,97662.69
2023-02-22T19:06:29.842Z,97670.47
2023-02-22T19:09:01.606Z,97671.75
2023-02-22T19:11:29.680Z,97674.13
2023-02-22T19:13:59.670Z,97665.78
2023-02-22T19:16:28.463Z,97669.78
2023-02-22T19:18:58.716Z,97681.59
2023-02-22T19:21:30.114Z,97672.97
2023-02-22T19:23:58.356Z,97671.59
2023-02-22T19:26:29.094Z,97672.69
2023-02-22T19:28:58.615Z,97659.75
2023-02-22T19:31:31.142Z,97681.75
2023-02-22T19:34:03.763Z,97672.63
2023-02-22T19:36:31.940Z,97682.06
2023-02-22T19:39:05.020Z,97682.31
2023-02-22T19:41:33.081Z,97681.81
2023-02-22T19:44:02.866Z,97685.88
2023-02-22T19:46:32.016Z,97678.63
2023-02-22T19:49:02.687Z,97678.66
2023-02-22T19:51:31.883Z,97681.66
2023-02-22T19:54:02.558Z,97683.56
2023-02-22T19:56:32.360Z,97685.78
2023-02-22T19:59:06.289Z,97690.69
2023-02-22T20:01:38.199Z,97685.81
2023-02-22T20:04:10.365Z,97685.56
2023-02-22T20:06:44.016Z,97686.34
2023-02-22T20:09:15.296Z,97684.72
2023-02-22T20:11:43.337Z,97688.13
2023-02-22T20:14:18.747Z,97692.16
2023-02-22T20:16:47.320Z,97689.16
2023-02-22T20:19:18.258Z,97698.81
2023-02-22T20:21:46.385Z,97697.13
2023-02-22T20:24:20.452Z,97694.94
2023-02-22T20:26:50.219Z,97694.13
2023-02-22T20:29:19.136Z,97691.97
2023-02-22T20:31:53.722Z,97704.59
2023-02-22T20:34:25.915Z,97700.53
2023-02-22T20:36:54.459Z,97706.97
2023-02-22T20:39:22.813Z,97704.28
2023-02-22T20:41:55.332Z,97703.47
2023-02-22T20:44:23.447Z,97700.78
2023-02-22T20:46:51.848Z,97699.97
2023-02-22T20:49:23.640Z,97702.91
2023-02-22T20:51:54.630Z,97699.63
2023-02-22T20:54:23.228Z,97697.72
2023-02-22T20:56:53.250Z,97701.22
2023-02-22T20:59:21.905Z,97693.44
2023-02-22T21:01:50.515Z,97706.06
2023-02-22T21:04:19.354Z,97695.81
2023-02-22T21:06:49.467Z,97700.88
2023-02-22T21:09:20.282Z,97691.44
2023-02-22T21:11:49.141Z,97699.75
2023-02-22T21:14:19.986Z,97698.66
2023-02-22T21:16:49.687Z,97693.25
2023-02-22T21:19:25.627Z,97700.44
2023-02-22T21:21:57.262Z,97704.38
2023-02-22T21:24:27.378Z,97707.25
2023-02-22T21:26:55.809Z,97709.28
2023-02-22T21:29:23.840Z,97711.16
2023-02-22T21:31:54.273Z,97704.13
2023-02-22T21:34:22.576Z,97703.88
2023-02-22T21:36:52.518Z,97706.16
2023-02-22T21:39:22.795Z,97706.41
2023-02-22T21:41:52.714Z,97701.47
2023-02-22T21:44:22.149Z,97699.03
2023-02-22T21:46:50.284Z,97694.97
2023-02-22T21:49:22.374Z,97695.22
2023-02-22T21:51:51.698Z,97691.72
2023-02-22T21:54:21.756Z,97699.22
2023-02-22T21:56:50.883Z,97695.97
2023-02-22T21:59:20.744Z,97688.16
2023-02-22T22:01:50.430Z,97695.41
2023-02-22T22:04:20.697Z,97696.47
2023-02-22T22:06:50.128Z,97700.44
2023-02-22T22:09:23.637Z,97699.66
2023-02-22T22:12:01.503Z,97695.34
2023-02-22T22:14:29.554Z,97697.97
2023-02-22T22:16:58.875Z,97692.78
2023-02-22T22:19:27.304Z,97701.66
2023-02-22T22:21:55.510Z,97700.84
2023-02-22T22:24:24.916Z,97694.66
2023-02-22T22:26:55.489Z,97693.28
2023-02-22T22:29:26.662Z,97693.03
2023-02-22T22:31:54.977Z,97694.34
2023-02-22T22:34:24.465Z,97699.13
2023-02-22T22:36:52.779Z,97697.75
2023-02-22T22:39:21.211Z,97698.25
2023-02-22T22:41:49.609Z,97702.47
2023-02-22T22:44:22.431Z,97701.34
2023-02-22T22:46:53.835Z,97691.91
2023-02-22T22:49:23.720Z,97696.72
2023-02-22T22:51:53.749Z,97689.22
2023-02-22T22:54:23.024Z,97691.75
2023-02-22T22:56:51.422Z,97692.00
2023-02-22T22:59:21.745Z,97691.25
2023-02-22T23:01:52.132Z,97695.50
2023-02-22T23:04:21.535Z,97688.50
2023-02-22T23:06:52.301Z,97698.66
2023-02-22T23:09:23.306Z,97694.84
2023-02-22T23:11:53.483Z,97691.34
2023-02-22T23:14:25.078Z,97688.34
2023-02-22T23:16:56.634Z,97690.78
2023-02-22T23:19:24.677Z,97692.41
2023-02-22T23:21:53.087Z,97698.59
2023-02-22T23:24:21.706Z,97698.50
2023-02-22T23:26:50.849Z,97688.75
2023-02-22T23:29:20.288Z,97696.88
2023-02-22T23:31:50.858Z,97697.69
2023-02-22T23:34:21.493Z,97701.19
2023-02-22T23:36:54.256Z,97705.31
2023-02-22T23:39:23.880Z,97696.38
2023-02-22T23:41:53.009Z,97700.06
2023-02-22T23:44:21.836Z,97696.72
2023-02-22T23:46:55.931Z,97703.06
2023-02-22T23:49:26.914Z,97708.63
2023-02-22T23:51:55.712Z,97704.31
2023-02-22T23:54:24.839Z,97701.63
2023-02-22T23:56:56.999Z,97703.25
2023-02-22T23:59:26.319Z,97706.19
